createdAt,value
2018-06-25T00:00:31.942Z,2.30
2018-06-25T00:03:02.489Z,2.17
2018-06-25T00:05:33.066Z,2.80
2018-06-25T00:08:03.689Z,2.47
2018-06-25T00:10:34.406Z,3.00
2018-06-25T00:13:04.987Z,2.57
2018-06-25T00:15:35.853Z,2.50
2018-06-25T00:18:07.142Z,2.20
2018-06-25T00:20:37.776Z,2.73
2018-06-25T00:23:08.499Z,2.60
2018-06-25T00:25:39.239Z,2.60
2018-06-25T00:28:09.802Z,3.07
2018-06-25T00:30:40.417Z,3.10
2018-06-25T00:33:10.916Z,2.23
2018-06-25T00:35:41.511Z,2.17
2018-06-25T00:38:12.090Z,2.57
2018-06-25T00:40:42.745Z,2.53
2018-06-25T00:43:13.272Z,2.43
2018-06-25T00:45:43.870Z,2.90
2018-06-25T00:48:14.427Z,2.27
2018-06-25T00:50:44.969Z,2.30
2018-06-25T00:53:15.471Z,2.50
2018-06-25T00:55:46.155Z,2.73
2018-06-25T00:58:17.134Z,2.40
2018-06-25T01:00:47.721Z,2.77
2018-06-25T01:03:18.269Z,2.83
2018-06-25T01:05:48.828Z,3.00
2018-06-25T01:08:19.367Z,2.77
2018-06-25T01:10:49.964Z,2.70
2018-06-25T01:13:20.505Z,2.80
2018-06-25T01:15:51.065Z,2.40
2018-06-25T01:18:21.616Z,2.43
2018-06-25T01:20:52.187Z,2.70
2018-06-25T01:23:22.758Z,2.63
2018-06-25T01:25:53.437Z,2.43
2018-06-25T01:28:24.531Z,2.63
2018-06-25T01:30:55.110Z,2.70
2018-06-25T01:33:25.596Z,2.20
2018-06-25T01:35:56.141Z,2.37
2018-06-25T01:38:26.621Z,2.27
2018-06-25T01:40:57.221Z,2.83
2018-06-25T01:43:27.738Z,2.43
2018-06-25T01:45:58.263Z,2.53
2018-06-25T01:48:28.819Z,2.80
2018-06-25T01:50:59.411Z,2.20
2018-06-25T01:53:30.855Z,2.80
2018-06-25T01:56:01.096Z,2.40
2018-06-25T01:58:31.761Z,2.93
2018-06-25T02:01:02.327Z,2.60
2018-06-25T02:03:32.891Z,2.70
2018-06-25T02:06:03.442Z,2.27
2018-06-25T02:08:34.007Z,2.50
2018-06-25T02:11:04.621Z,2.40
2018-06-25T02:13:35.173Z,2.00
2018-06-25T02:16:05.946Z,2.60
2018-06-25T02:18:36.510Z,2.27
2018-06-25T02:21:07.269Z,2.70
2018-06-25T02:23:37.833Z,2.23
2018-06-25T02:26:08.563Z,1.87
2018-06-25T02:28:39.131Z,2.17
2018-06-25T02:31:09.718Z,2.23
2018-06-25T02:33:40.027Z,2.70
2018-06-25T02:36:10.539Z,3.53
2018-06-25T02:38:41.636Z,3.40
2018-06-25T02:41:12.232Z,3.90
2018-06-25T02:43:42.955Z,3.70
2018-06-25T02:46:13.526Z,4.50
2018-06-25T02:48:45.518Z,4.17
2018-06-25T02:51:16.090Z,4.10
2018-06-25T02:53:46.773Z,3.20
2018-06-25T02:56:17.481Z,3.57
2018-06-25T02:58:48.255Z,3.00
2018-06-25T03:01:18.908Z,3.33
2018-06-25T03:03:49.555Z,2.97
2018-06-25T03:06:20.093Z,2.80
2018-06-25T03:08:50.987Z,2.67
2018-06-25T03:11:21.554Z,3.40
2018-06-25T03:13:52.182Z,3.10
2018-06-25T03:16:22.713Z,2.50
2018-06-25T03:18:54.150Z,2.40
2018-06-25T03:21:24.357Z,2.40
2018-06-25T03:23:54.779Z,2.50
2018-06-25T03:26:25.407Z,2.80
2018-06-25T03:28:55.909Z,2.90
2018-06-25T03:31:26.470Z,2.40
2018-06-25T03:33:57.506Z,2.60
2018-06-25T03:36:28.078Z,2.30
2018-06-25T03:38:58.597Z,2.23
2018-06-25T03:41:29.309Z,2.80
2018-06-25T03:43:59.966Z,2.57
2018-06-25T03:46:30.530Z,2.30
2018-06-25T03:49:01.097Z,3.53
2018-06-25T03:51:31.649Z,3.30
2018-06-25T03:54:02.274Z,3.50
2018-06-25T03:56:32.854Z,2.97
2018-06-25T03:59:03.730Z,2.93
2018-06-25T04:01:34.329Z,3.77
2018-06-25T04:04:04.985Z,3.83
2018-06-25T04:06:35.600Z,5.47
2018-06-25T04:09:10.389Z,8.73
2018-06-25T04:11:41.474Z,4.03
2018-06-25T04:14:12.110Z,3.30
2018-06-25T04:16:42.647Z,3.00
2018-06-25T04:19:13.270Z,2.90
2018-06-25T04:21:43.849Z,3.00
2018-06-25T04:24:14.422Z,2.80
2018-06-25T04:26:45.035Z,3.00
2018-06-25T04:29:15.573Z,2.43
2018-06-25T04:31:46.132Z,6.90
2018-06-25T04:34:16.646Z,6.97
2018-06-25T04:36:47.256Z,5.53
2018-06-25T04:39:17.829Z,3.50
2018-06-25T04:41:48.416Z,6.80
2018-06-25T04:44:18.980Z,6.10
2018-06-25T04:46:49.520Z,9.90
2018-06-25T04:49:20.067Z,10.83
2018-06-25T04:51:50.648Z,6.13
2018-06-25T04:54:21.187Z,3.93
2018-06-25T04:56:51.885Z,3.30
2018-06-25T04:59:22.724Z,3.53
2018-06-25T05:01:53.338Z,3.20
2018-06-25T05:04:23.976Z,3.43
2018-06-25T05:06:54.516Z,3.07
2018-06-25T05:09:25.197Z,3.33
2018-06-25T05:11:55.758Z,3.50
2018-06-25T05:14:28.246Z,3.40
2018-06-25T05:16:58.805Z,3.57
2018-06-25T05:19:29.362Z,3.43
2018-06-25T05:21:59.952Z,3.70
2018-06-25T05:24:30.508Z,4.17
2018-06-25T05:27:01.163Z,4.20
2018-06-25T05:29:31.716Z,4.03
2018-06-25T05:32:02.519Z,3.27
2018-06-25T05:34:33.053Z,3.80
2018-06-25T05:37:03.753Z,3.57
2018-06-25T05:39:34.343Z,4.37
2018-06-25T05:42:06.115Z,4.70
2018-06-25T05:44:36.708Z,3.90
2018-06-25T05:47:07.322Z,4.37
2018-06-25T05:49:37.847Z,5.17
2018-06-25T05:52:08.507Z,5.10
2018-06-25T05:54:39.094Z,5.20
2018-06-25T05:57:09.710Z,6.00
2018-06-25T05:59:40.714Z,4.80
2018-06-25T06:02:11.295Z,5.00
2018-06-25T06:04:41.836Z,4.90
2018-06-25T06:07:12.643Z,5.47
2018-06-25T06:09:43.220Z,4.50
2018-06-25T06:12:13.897Z,4.20
2018-06-25T06:14:44.468Z,3.70
2018-06-25T06:17:15.065Z,5.00
2018-06-25T06:19:45.630Z,4.70
2018-06-25T06:22:16.240Z,5.10
2018-06-25T06:24:46.816Z,5.07
2018-06-25T06:27:17.410Z,4.83
2018-06-25T06:29:47.923Z,5.93
2018-06-25T06:32:18.481Z,5.23
2018-06-25T06:34:49.011Z,4.50
2018-06-25T06:37:19.600Z,4.73
2018-06-25T06:39:50.122Z,5.80
2018-06-25T06:42:20.665Z,5.23
2018-06-25T06:44:51.221Z,4.93
2018-06-25T06:47:21.797Z,4.80
2018-06-25T06:49:52.380Z,4.23
2018-06-25T06:52:23.061Z,5.20
2018-06-25T06:54:54.024Z,5.00
2018-06-25T06:57:24.664Z,4.50
2018-06-25T06:59:55.177Z,5.10
2018-06-25T07:02:25.721Z,5.30
2018-06-25T07:04:56.285Z,4.23
2018-06-25T07:07:26.831Z,4.53
2018-06-25T07:09:57.332Z,4.47
2018-06-25T07:12:28.083Z,4.53
2018-06-25T07:14:58.650Z,5.60
2018-06-25T07:17:29.225Z,5.60
2018-06-25T07:19:59.775Z,5.83
2018-06-25T07:22:30.318Z,5.57
2018-06-25T07:25:00.892Z,21.80
2018-06-25T07:27:31.485Z,7.57
2018-06-25T07:30:02.123Z,4.67
2018-06-25T07:32:32.649Z,3.80
2018-06-25T07:35:03.509Z,3.57
2018-06-25T07:37:34.109Z,4.20
2018-06-25T07:40:04.673Z,3.07
2018-06-25T07:42:35.257Z,3.80
2018-06-25T07:45:05.829Z,3.40
2018-06-25T07:47:36.393Z,2.90
2018-06-25T07:50:06.628Z,2.90
2018-06-25T07:52:37.097Z,2.90
2018-06-25T07:55:07.654Z,2.97
2018-06-25T07:57:38.217Z,2.53
2018-06-25T08:00:08.858Z,2.20
2018-06-25T08:02:39.385Z,2.50
2018-06-25T08:05:10.305Z,2.60
2018-06-25T08:07:40.492Z,2.23
2018-06-25T08:10:10.992Z,2.53
2018-06-25T08:12:41.674Z,2.40
2018-06-25T08:15:12.189Z,2.83
2018-06-25T08:17:42.745Z,3.60
2018-06-25T08:20:13.283Z,2.97
2018-06-25T08:22:43.508Z,3.00
2018-06-25T08:25:13.992Z,2.60
2018-06-25T08:27:44.519Z,3.20
2018-06-25T08:30:15.153Z,2.60
2018-06-25T08:32:45.612Z,2.90
2018-06-25T08:35:16.108Z,2.80
2018-06-25T08:37:46.552Z,3.00
2018-06-25T08:40:17.274Z,3.10
2018-06-25T08:42:48.116Z,2.83
2018-06-25T08:45:18.678Z,2.50
2018-06-25T08:47:49.177Z,2.80
2018-06-25T08:50:19.734Z,3.00
2018-06-25T08:52:50.333Z,2.53
2018-06-25T08:55:20.878Z,2.43
2018-06-25T08:57:51.426Z,3.03
2018-06-25T09:00:22.069Z,2.30
2018-06-25T09:02:52.629Z,2.60
2018-06-25T09:05:23.197Z,2.80
2018-06-25T09:07:53.745Z,3.10
2018-06-25T09:10:24.240Z,2.67
2018-06-25T09:12:54.821Z,2.53
2018-06-25T09:15:25.419Z,2.70
2018-06-25T09:17:55.933Z,2.87
2018-06-25T09:20:26.808Z,2.80
2018-06-25T09:22:57.386Z,2.40
2018-06-25T09:25:28.013Z,2.63
2018-06-25T09:28:05.057Z,2.40
2018-06-25T09:30:35.604Z,2.30
2018-06-25T09:33:06.393Z,2.40
2018-06-25T09:35:36.566Z,2.30
2018-06-25T09:38:07.205Z,2.27
2018-06-25T09:40:37.705Z,2.40
2018-06-25T09:43:08.246Z,2.73
2018-06-25T09:45:38.770Z,2.90
2018-06-25T09:48:09.330Z,2.77
2018-06-25T09:50:39.893Z,3.13
2018-06-25T09:53:10.072Z,2.70
2018-06-25T09:55:40.496Z,3.10
2018-06-25T09:58:11.073Z,2.93
2018-06-25T10:00:46.799Z,2.63
2018-06-25T10:03:17.349Z,2.60
2018-06-25T10:05:47.522Z,2.40
2018-06-25T10:08:17.991Z,2.30
2018-06-25T10:10:48.528Z,2.23
2018-06-25T10:13:18.705Z,2.30
2018-06-25T10:15:49.158Z,2.03
2018-06-25T10:18:19.737Z,2.20
2018-06-25T10:20:50.272Z,1.90
2018-06-25T10:23:20.787Z,1.90
2018-06-25T10:25:51.284Z,2.00
2018-06-25T10:28:22.289Z,1.97
2018-06-25T10:30:52.817Z,2.23
2018-06-25T10:33:23.393Z,2.10
2018-06-25T10:35:53.929Z,2.23
2018-06-25T10:38:24.422Z,1.60
2018-06-25T10:40:54.968Z,1.77
2018-06-25T10:43:25.141Z,1.77
2018-06-25T10:45:55.598Z,1.70
2018-06-25T10:48:26.171Z,1.60
2018-06-25T10:50:56.717Z,1.93
2018-06-25T10:53:27.245Z,1.87
2018-06-25T10:55:57.773Z,1.50
2018-06-25T10:58:28.298Z,1.80
2018-06-25T11:00:58.867Z,1.40
2018-06-25T11:03:29.732Z,1.90
2018-06-25T11:06:00.301Z,1.67
2018-06-25T11:08:30.798Z,1.70
2018-06-25T11:11:01.386Z,1.80
2018-06-25T11:13:31.995Z,2.03
2018-06-25T11:16:02.131Z,1.60
2018-06-25T11:18:32.560Z,1.43
2018-06-25T11:21:03.166Z,1.63
2018-06-25T11:23:33.661Z,1.50
2018-06-25T11:26:04.226Z,2.03
2018-06-25T11:28:34.775Z,1.77
2018-06-25T11:31:05.956Z,1.57
2018-06-25T11:33:36.120Z,1.60
2018-06-25T11:36:06.673Z,1.57
2018-06-25T11:38:37.241Z,1.60
2018-06-25T11:41:07.779Z,1.50
2018-06-25T11:43:38.332Z,2.27
2018-06-25T11:46:08.873Z,2.40
2018-06-25T11:48:40.241Z,2.33
2018-06-25T11:51:10.799Z,2.60
2018-06-25T11:53:41.290Z,2.70
2018-06-25T11:56:11.840Z,2.67
2018-06-25T11:58:42.397Z,2.43
2018-06-25T12:01:12.933Z,2.73
2018-06-25T12:03:43.557Z,2.70
2018-06-25T12:06:14.078Z,3.73
2018-06-25T12:08:44.326Z,2.83
2018-06-25T12:11:14.766Z,2.60
2018-06-25T12:13:45.414Z,3.00
2018-06-25T12:16:15.941Z,3.00
2018-06-25T12:18:46.582Z,2.93
2018-06-25T12:21:17.170Z,2.60
2018-06-25T12:23:47.769Z,3.13
2018-06-25T12:26:19.949Z,2.70
2018-06-25T12:28:50.626Z,3.20
2018-06-25T12:31:21.354Z,3.00
2018-06-25T12:33:51.932Z,3.70
2018-06-25T12:36:22.514Z,5.00
2018-06-25T12:38:53.150Z,4.03
2018-06-25T12:41:23.753Z,3.67
2018-06-25T12:43:54.345Z,4.10
2018-06-25T12:46:24.885Z,3.90
2018-06-25T12:48:55.561Z,4.03
2018-06-25T12:51:26.108Z,3.67
2018-06-25T12:53:57.077Z,2.67
2018-06-25T12:56:27.716Z,2.97
2018-06-25T12:58:57.881Z,2.50
2018-06-25T13:01:28.473Z,2.90
2018-06-25T13:03:58.937Z,3.00
2018-06-25T13:06:29.524Z,3.80
2018-06-25T13:09:00.826Z,3.10
2018-06-25T13:11:31.350Z,2.60
2018-06-25T13:14:01.901Z,3.10
2018-06-25T13:16:32.517Z,2.70
2018-06-25T13:19:03.122Z,2.90
2018-06-25T13:21:33.707Z,3.07
2018-06-25T13:24:04.805Z,2.83
2018-06-25T13:26:35.373Z,2.73
2018-06-25T13:29:06.083Z,3.37
2018-06-25T13:31:36.694Z,3.77
2018-06-25T13:34:07.274Z,2.90
2018-06-25T13:36:37.866Z,2.80
2018-06-25T13:39:09.992Z,2.43
2018-06-25T13:41:40.826Z,2.77
2018-06-25T13:44:12.048Z,2.57
2018-06-25T13:46:42.614Z,2.77
2018-06-25T13:49:13.170Z,2.33
2018-06-25T13:51:43.734Z,6.83
2018-06-25T13:54:14.329Z,5.20
2018-06-25T13:56:44.944Z,2.70
2018-06-25T13:59:15.544Z,2.93
2018-06-25T14:01:46.131Z,2.63
2018-06-25T14:04:16.884Z,2.80
2018-06-25T14:06:47.455Z,2.90
2018-06-25T14:09:18.125Z,2.97
2018-06-25T14:11:48.747Z,2.70
2018-06-25T14:14:19.373Z,2.57
2018-06-25T14:16:50.122Z,2.87
2018-06-25T14:19:20.589Z,2.90
2018-06-25T14:21:51.102Z,2.30
2018-06-25T14:24:27.009Z,2.67
2018-06-25T14:27:02.683Z,2.87
2018-06-25T14:29:36.422Z,2.57
2018-06-25T14:32:12.358Z,2.57
2018-06-25T14:34:43.601Z,2.60
2018-06-25T14:37:14.158Z,2.50
2018-06-25T14:39:44.786Z,2.30
2018-06-25T14:42:15.686Z,2.70
2018-06-25T14:44:46.280Z,2.80
2018-06-25T14:47:16.776Z,2.60
2018-06-25T14:49:47.505Z,2.80
2018-06-25T14:52:18.102Z,2.60
2018-06-25T14:54:48.668Z,2.70
2018-06-25T14:57:19.329Z,3.00
2018-06-25T14:59:50.469Z,2.70
2018-06-25T15:02:20.736Z,2.67
2018-06-25T15:04:51.382Z,2.90
2018-06-25T15:07:21.968Z,2.93
2018-06-25T15:09:52.628Z,2.60
2018-06-25T15:12:23.263Z,3.00
2018-06-25T15:14:53.882Z,2.80
2018-06-25T15:17:24.458Z,2.83
2018-06-25T15:19:55.056Z,2.63
2018-06-25T15:22:25.626Z,3.10
2018-06-25T15:24:56.260Z,4.17
2018-06-25T15:27:26.853Z,3.47
2018-06-25T15:29:57.818Z,12.47
2018-06-25T15:32:32.030Z,8.53
2018-06-25T15:35:02.617Z,3.80
2018-06-25T15:37:33.194Z,2.60
2018-06-25T15:40:03.926Z,2.63
2018-06-25T15:42:34.510Z,2.97
2018-06-25T15:45:05.318Z,2.93
2018-06-25T15:47:36.050Z,3.10
2018-06-25T15:50:06.383Z,3.60
2018-06-25T15:52:36.881Z,3.33
2018-06-25T15:55:07.525Z,3.17
2018-06-25T15:57:37.813Z,3.23
2018-06-25T16:00:08.480Z,3.13
2018-06-25T16:02:39.090Z,3.20
2018-06-25T16:05:09.711Z,3.00
2018-06-25T16:07:40.379Z,2.87
2018-06-25T16:10:11.118Z,2.63
2018-06-25T16:12:41.778Z,5.30
2018-06-25T16:15:12.413Z,5.67
2018-06-25T16:17:43.159Z,2.77
2018-06-25T16:20:13.781Z,2.30
2018-06-25T16:22:44.420Z,2.70
2018-06-25T16:25:15.081Z,2.97
2018-06-25T16:27:45.746Z,2.77
2018-06-25T16:30:15.978Z,2.73
2018-06-25T16:32:46.537Z,2.60
2018-06-25T16:35:17.205Z,2.80
2018-06-25T16:37:47.819Z,2.80
2018-06-25T16:40:18.434Z,2.60
2018-06-25T16:42:49.035Z,2.53
2018-06-25T16:45:19.737Z,3.10
2018-06-25T16:47:50.549Z,4.17
2018-06-25T16:50:21.161Z,3.83
2018-06-25T16:52:51.775Z,3.50
2018-06-25T16:55:22.373Z,3.47
2018-06-25T16:57:52.930Z,2.80
2018-06-25T17:00:23.518Z,3.77
2018-06-25T17:02:54.612Z,3.40
2018-06-25T17:05:25.396Z,3.63
2018-06-25T17:07:55.978Z,3.77
2018-06-25T17:10:26.714Z,3.50
2018-06-25T17:12:57.363Z,3.93
2018-06-25T17:15:28.197Z,3.70
2018-06-25T17:17:58.830Z,3.57
2018-06-25T17:20:29.374Z,4.03
2018-06-25T17:22:59.985Z,3.80
2018-06-25T17:25:30.644Z,3.87
2018-06-25T17:28:01.177Z,6.73
2018-06-25T17:30:31.794Z,5.10
2018-06-25T17:33:02.797Z,3.50
2018-06-25T17:35:33.414Z,3.60
2018-06-25T17:38:04.004Z,3.80
2018-06-25T17:40:34.621Z,3.60
2018-06-25T17:43:05.563Z,4.30
2018-06-25T17:45:37.034Z,4.13
2018-06-25T17:48:07.826Z,4.00
2018-06-25T17:50:38.486Z,4.70
2018-06-25T17:53:09.814Z,4.17
2018-06-25T17:55:40.405Z,4.83
2018-06-25T17:58:11.030Z,4.37
2018-06-25T18:00:41.690Z,5.17
2018-06-25T18:03:12.917Z,3.83
2018-06-25T18:05:44.051Z,4.80
2018-06-25T18:08:15.040Z,4.60
2018-06-25T18:10:45.846Z,5.23
2018-06-25T18:13:16.486Z,4.87
2018-06-25T18:15:47.115Z,4.30
2018-06-25T18:18:22.798Z,5.03
2018-06-25T18:20:53.676Z,4.60
2018-06-25T18:23:24.282Z,4.50
2018-06-25T18:25:54.993Z,4.50
2018-06-25T18:28:25.735Z,4.73
2018-06-25T18:30:56.019Z,4.73
2018-06-25T18:33:26.478Z,4.80
2018-06-25T18:35:57.259Z,4.43
2018-06-25T18:38:27.841Z,4.90
2018-06-25T18:40:58.854Z,4.23
2018-06-25T18:43:29.477Z,4.60
2018-06-25T18:46:00.055Z,7.40
2018-06-25T18:48:30.691Z,14.33
2018-06-25T18:51:01.392Z,9.63
2018-06-25T18:53:33.262Z,5.07
2018-06-25T18:56:03.965Z,4.20
2018-06-25T18:58:34.609Z,4.40
2018-06-25T19:01:05.252Z,4.07
2018-06-25T19:03:35.860Z,4.40
2018-06-25T19:06:06.591Z,4.90
2018-06-25T19:08:37.171Z,4.23
2018-06-25T19:11:07.778Z,4.13
2018-06-25T19:13:38.357Z,3.63
2018-06-25T19:16:08.554Z,4.33
2018-06-25T19:18:39.241Z,4.40
2018-06-25T19:21:09.922Z,4.40
2018-06-25T19:23:41.110Z,4.23
2018-06-25T19:26:11.753Z,4.37
2018-06-25T19:28:42.353Z,4.83
2018-06-25T19:31:12.887Z,4.70
2018-06-25T19:33:43.446Z,5.13
2018-06-25T19:36:14.123Z,4.03
2018-06-25T19:38:44.676Z,5.17
2018-06-25T19:41:15.273Z,4.90
2018-06-25T19:43:45.801Z,4.40
2018-06-25T19:46:16.438Z,4.30
2018-06-25T19:48:47.089Z,4.97
2018-06-25T19:51:17.732Z,4.77
2018-06-25T19:53:48.681Z,4.83
2018-06-25T19:56:19.378Z,5.37
2018-06-25T19:58:49.909Z,4.67
2018-06-25T20:01:20.493Z,5.23
2018-06-25T20:03:51.121Z,5.67
2018-06-25T20:06:21.721Z,5.20
2018-06-25T20:08:52.332Z,5.10
2018-06-25T20:11:23.018Z,4.87
2018-06-25T20:13:53.612Z,4.67
2018-06-25T20:16:24.294Z,4.40
2018-06-25T20:18:54.879Z,5.20
2018-06-25T20:21:25.434Z,4.53
2018-06-25T20:23:55.989Z,4.20
2018-06-25T20:26:26.673Z,4.87
2018-06-25T20:28:57.297Z,5.10
2018-06-25T20:31:27.910Z,4.80
2018-06-25T20:33:58.090Z,4.90
2018-06-25T20:36:28.606Z,5.50
2018-06-25T20:38:59.407Z,5.20
2018-06-25T20:41:30.279Z,5.10
2018-06-25T20:44:01.036Z,5.07
2018-06-25T20:46:31.642Z,4.77
2018-06-25T20:49:02.231Z,5.40
2018-06-25T20:51:33.011Z,5.07
2018-06-25T20:54:03.735Z,5.73
2018-06-25T20:56:34.371Z,5.73
2018-06-25T20:59:05.143Z,6.67
2018-06-25T21:01:35.737Z,6.40
2018-06-25T21:04:06.393Z,6.40
2018-06-25T21:06:37.026Z,5.20
2018-06-25T21:09:11.098Z,5.90
2018-06-25T21:11:42.451Z,6.57
2018-06-25T21:14:12.977Z,5.53
2018-06-25T21:16:43.786Z,5.67
2018-06-25T21:19:14.333Z,5.80
2018-06-25T21:21:44.923Z,5.53
2018-06-25T21:24:15.461Z,5.40
2018-06-25T21:26:46.082Z,6.37
2018-06-25T21:29:16.633Z,5.83
2018-06-25T21:31:47.256Z,5.63
2018-06-25T21:34:17.828Z,5.80
2018-06-25T21:36:48.422Z,5.10
2018-06-25T21:39:19.017Z,5.53
2018-06-25T21:44:41.341Z,5.10
2018-06-25T21:47:12.010Z,5.30
2018-06-25T21:49:42.598Z,5.63
2018-06-25T21:52:13.328Z,5.43
2018-06-25T21:54:44.043Z,5.33
2018-06-25T21:57:14.598Z,5.33
2018-06-25T21:59:45.159Z,5.00
2018-06-25T22:02:16.341Z,6.10
2018-06-25T22:04:46.871Z,5.80
2018-06-25T22:07:17.838Z,5.30
2018-06-25T22:09:48.438Z,5.87
2018-06-25T22:12:18.991Z,6.00
2018-06-25T22:14:49.593Z,5.63
2018-06-25T22:17:20.166Z,5.90
2018-06-25T22:19:50.701Z,5.70
2018-06-25T22:22:21.278Z,5.77
2018-06-25T22:24:51.806Z,5.27
2018-06-25T22:27:22.416Z,5.80
2018-06-25T22:29:52.977Z,5.47
2018-06-25T22:32:23.577Z,5.50
2018-06-25T22:34:54.125Z,5.57
2018-06-25T22:37:24.789Z,5.67
2018-06-25T22:39:55.318Z,5.70
2018-06-25T22:42:27.805Z,5.53
2018-06-25T22:44:58.309Z,5.73
2018-06-25T22:47:28.506Z,5.60
2018-06-25T22:49:58.990Z,5.70
2018-06-25T22:52:29.525Z,5.97
2018-06-25T22:55:00.131Z,5.07
2018-06-25T22:57:30.683Z,5.80
2018-06-25T23:00:01.299Z,6.33
2018-06-25T23:02:32.325Z,6.13
2018-06-25T23:05:03.006Z,6.20
2018-06-25T23:07:33.514Z,5.80
2018-06-25T23:10:04.130Z,5.57
2018-06-25T23:12:34.715Z,5.77
2018-06-25T23:15:05.381Z,6.07
2018-06-25T23:17:35.901Z,5.97
2018-06-25T23:20:06.489Z,5.63
2018-06-25T23:22:37.098Z,6.63
2018-06-25T23:25:07.808Z,6.10
2018-06-25T23:27:38.749Z,5.27
2018-06-25T23:30:09.310Z,5.70
2018-06-25T23:32:39.961Z,5.90
2018-06-25T23:35:10.585Z,6.33
2018-06-25T23:37:41.206Z,6.50
2018-06-25T23:40:12.405Z,5.60
2018-06-25T23:42:43.008Z,6.30
2018-06-25T23:45:13.713Z,6.20
2018-06-25T23:47:44.279Z,5.77
2018-06-25T23:50:14.921Z,5.87
2018-06-25T23:52:45.518Z,6.00
2018-06-25T23:55:16.327Z,5.70
2018-06-25T23:57:46.939Z,6.50
